Time;durP1;ratioP1;P1;durP2;ratioP2;P2;SDS_P1;SDS_P2;PMS_P1;PMS_P2;Temp;Humidity;BMP_temperature;BMP_pressure;BME280_temperature;BME280_humidity;BME280_pressure;Samples;Min_cycle;Max_cycle;Signal;HPM_P1;HPM_P2
2021/09/20 00:01:15;;;;;;;9.85;4.75;;;;;;;;;;4428666;32;20266;-54
2021/09/20 00:03:40;;;;;;;11.10;4.72;;;;;;;;;;4423782;32;20344;-54
2021/09/20 00:06:06;;;;;;;9.25;3.87;;;;;;;;;;4408335;32;20546;-54
2021/09/20 00:08:31;;;;;;;11.70;4.55;;;;;;;;;;4432164;32;20288;-54
2021/09/20 00:10:57;;;;;;;10.40;5.20;;;;;;;;;;4416428;32;20258;-53
2021/09/20 00:13:22;;;;;;;11.98;4.95;;;;;;;;;;4425984;32;20597;-54
2021/09/20 00:15:48;;;;;;;10.77;5.45;;;;;;;;;;4432420;32;20642;-54
2021/09/20 00:18:13;;;;;;;8.10;5.00;;;;;;;;;;4432149;32;20272;-54
2021/09/20 00:20:39;;;;;;;7.15;4.75;;;;;;;;;;4432046;32;20279;-55
2021/09/20 00:23:04;;;;;;;13.88;5.20;;;;;;;;;;4432308;32;20289;-54
2021/09/20 00:25:30;;;;;;;10.80;5.78;;;;;;;;;;4433050;32;20225;-54
2021/09/20 00:27:55;;;;;;;8.98;5.18;;;;;;;;;;4432126;32;20348;-55
2021/09/20 00:30:21;;;;;;;5.68;3.72;;;;;;;;;;4431999;32;20654;-54
2021/09/20 00:32:47;;;;;;;6.68;3.95;;;;;;;;;;4427082;32;20755;-55
2021/09/20 00:35:12;;;;;;;12.82;4.22;;;;;;;;;;4432628;32;20260;-53
2021/09/20 00:37:38;;;;;;;9.75;5.75;;;;;;;;;;4432271;32;20314;-53
2021/09/20 00:40:05;;;;;;;8.77;4.95;;;;;;;;;;4420232;32;20251;-53
2021/09/20 00:42:30;;;;;;;11.98;4.93;;;;;;;;;;4430619;32;20291;-52
2021/09/20 00:44:55;;;;;;;7.37;4.00;;;;;;;;;;4430289;32;20253;-52
2021/09/20 00:47:22;;;;;;;11.80;4.95;;;;;;;;;;4432359;32;20326;-52
2021/09/20 00:49:47;;;;;;;6.82;3.90;;;;;;;;;;4421311;32;20352;-52
2021/09/20 00:52:13;;;;;;;6.37;3.37;;;;;;;;;;4416828;32;20598;-52
2021/09/20 00:54:39;;;;;;;8.73;3.97;;;;;;;;;;4430028;32;20224;-52
2021/09/20 00:57:05;;;;;;;7.93;3.55;;;;;;;;;;4432513;32;20259;-52
2021/09/20 00:59:30;;;;;;;11.70;3.83;;;;;;;;;;4432415;32;20233;-51
2021/09/20 01:01:56;;;;;;;4.00;2.97;;;;;;;;;;4431553;32;20236;-52
2021/09/20 01:04:21;;;;;;;4.62;3.33;;;;;;;;;;4432253;32;20307;-53
2021/09/20 01:06:47;;;;;;;7.28;3.67;;;;;;;;;;4432277;32;20241;-53
2021/09/20 01:09:12;;;;;;;4.75;2.97;;;;;;;;;;4428150;32;20241;-52
2021/09/20 01:11:38;;;;;;;5.35;3.47;;;;;;;;;;4416221;32;20292;-50
2021/09/20 01:14:04;;;;;;;6.55;3.95;;;;;;;;;;4416685;32;20295;-52
2021/09/20 01:16:30;;;;;;;6.32;3.22;;;;;;;;;;4417471;32;20225;-52
2021/09/20 01:18:55;;;;;;;8.88;3.28;;;;;;;;;;4416587;32;20673;-51
2021/09/20 01:21:21;;;;;;;4.78;3.30;;;;;;;;;;4419213;32;20259;-53
2021/09/20 01:23:47;;;;;;;7.03;4.03;;;;;;;;;;4419753;32;20284;-52
2021/09/20 01:26:14;;;;;;;6.90;3.67;;;;;;;;;;4420141;32;20562;-52
2021/09/20 01:28:40;;;;;;;6.28;3.78;;;;;;;;;;4420239;32;20544;-51
2021/09/20 01:31:06;;;;;;;12.00;3.78;;;;;;;;;;4420220;32;20244;-52
2021/09/20 01:33:32;;;;;;;8.15;3.50;;;;;;;;;;4430131;32;20295;-53
2021/09/20 01:35:57;;;;;;;10.32;3.83;;;;;;;;;;4435472;32;20312;-52
2021/09/20 01:38:22;;;;;;;5.85;3.35;;;;;;;;;;4432837;32;20291;-52
2021/09/20 01:40:48;;;;;;;4.85;2.55;;;;;;;;;;4435145;32;20228;-52
2021/09/20 01:43:14;;;;;;;8.88;2.80;;;;;;;;;;4435134;32;20797;-51
2021/09/20 01:45:39;;;;;;;6.50;3.80;;;;;;;;;;4435743;32;20488;-53
2021/09/20 01:48:05;;;;;;;6.65;4.10;;;;;;;;;;4435146;32;20296;-53
2021/09/20 01:50:31;;;;;;;8.20;4.37;;;;;;;;;;4420022;32;20251;-52
2021/09/20 01:52:57;;;;;;;9.05;4.03;;;;;;;;;;4419358;32;20367;-53
2021/09/20 01:55:22;;;;;;;6.30;4.05;;;;;;;;;;4419440;32;20249;-52
2021/09/20 01:57:48;;;;;;;7.22;3.83;;;;;;;;;;4419363;32;20561;-54
2021/09/20 02:00:15;;;;;;;9.98;4.22;;;;;;;;;;4419786;32;20337;-52
2021/09/20 02:02:40;;;;;;;7.40;3.45;;;;;;;;;;4419368;32;20344;-53
2021/09/20 02:05:07;;;;;;;6.87;3.45;;;;;;;;;;4419028;32;20336;-52
2021/09/20 02:07:33;;;;;;;5.80;3.10;;;;;;;;;;4420034;32;20290;-53
2021/09/20 02:09:58;;;;;;;5.12;3.45;;;;;;;;;;4428304;32;20228;-53
2021/09/20 02:12:24;;;;;;;5.28;3.03;;;;;;;;;;4435054;32;20297;-52
2021/09/20 02:14:49;;;;;;;8.25;4.25;;;;;;;;;;4419994;32;20225;-52
2021/09/20 02:17:15;;;;;;;13.85;5.30;;;;;;;;;;4419623;32;20239;-52
2021/09/20 02:19:40;;;;;;;4.75;4.10;;;;;;;;;;4419223;32;20736;-52
2021/09/20 02:22:06;;;;;;;5.28;3.53;;;;;;;;;;4419337;32;20233;-52
2021/09/20 02:24:32;;;;;;;5.45;3.75;;;;;;;;;;4419417;32;20343;-52
2021/09/20 02:26:58;;;;;;;12.52;4.90;;;;;;;;;;4419099;32;20227;-52
2021/09/20 02:29:24;;;;;;;9.55;4.75;;;;;;;;;;4419026;32;20243;-52
2021/09/20 02:31:49;;;;;;;9.07;4.90;;;;;;;;;;4418713;32;20201;-52
2021/09/20 02:34:15;;;;;;;10.68;5.85;;;;;;;;;;4423417;32;20294;-52
2021/09/20 02:36:40;;;;;;;14.15;5.70;;;;;;;;;;4431857;32;20655;-52
2021/09/20 02:39:06;;;;;;;13.13;6.07;;;;;;;;;;4432189;32;20352;-53
2021/09/20 02:41:31;;;;;;;10.13;5.25;;;;;;;;;;4434362;32;20668;-53
2021/09/20 02:43:57;;;;;;;12.95;5.53;;;;;;;;;;4434263;32;20319;-53
2021/09/20 02:46:22;;;;;;;7.40;4.72;;;;;;;;;;4433831;32;20263;-53
2021/09/20 02:48:48;;;;;;;26.55;8.52;;;;;;;;;;4429413;32;20363;-53
2021/09/20 02:51:13;;;;;;;13.70;6.68;;;;;;;;;;4404851;32;20240;-53
2021/09/20 02:53:39;;;;;;;19.08;7.35;;;;;;;;;;4418914;32;20300;-53
2021/09/20 02:56:06;;;;;;;20.48;8.00;;;;;;;;;;4418473;32;20229;-52
2021/09/20 02:58:31;;;;;;;15.65;6.05;;;;;;;;;;4418546;32;20298;-53
2021/09/20 03:00:57;;;;;;;18.40;7.32;;;;;;;;;;4418370;32;20296;-52
2021/09/20 03:03:22;;;;;;;26.12;8.25;;;;;;;;;;4423582;32;20276;-54
2021/09/20 03:05:48;;;;;;;22.70;8.30;;;;;;;;;;4434046;32;20244;-53
2021/09/20 03:08:14;;;;;;;19.40;7.68;;;;;;;;;;4433198;32;20338;-52
2021/09/20 03:10:39;;;;;;;18.55;8.43;;;;;;;;;;4423337;32;20558;-52
2021/09/20 03:13:05;;;;;;;20.50;8.25;;;;;;;;;;4433763;32;20632;-53
2021/09/20 03:15:31;;;;;;;25.48;8.48;;;;;;;;;;4434173;32;20535;-51
2021/09/20 03:17:56;;;;;;;15.20;7.70;;;;;;;;;;4433497;32;20390;-53
2021/09/20 03:20:22;;;;;;;17.65;9.23;;;;;;;;;;4433668;32;20270;-51
2021/09/20 03:22:48;;;;;;;11.27;6.87;;;;;;;;;;4433301;32;20367;-53
2021/09/20 03:25:14;;;;;;;28.62;7.20;;;;;;;;;;4434040;32;20212;-53
2021/09/20 03:27:41;;;;;;;17.52;7.35;;;;;;;;;;4433332;32;20361;-53
2021/09/20 03:30:08;;;;;;;14.70;7.47;;;;;;;;;;4433577;32;20269;-52
2021/09/20 03:32:34;;;;;;;14.00;6.87;;;;;;;;;;4429278;32;20201;-53
2021/09/20 03:34:59;;;;;;;13.07;7.28;;;;;;;;;;4420548;32;20251;-52
2021/09/20 03:37:25;;;;;;;13.48;7.60;;;;;;;;;;4433330;32;20293;-52
2021/09/20 03:39:50;;;;;;;17.25;8.32;;;;;;;;;;4421193;32;20260;-52
2021/09/20 03:42:16;;;;;;;15.52;7.43;;;;;;;;;;4418447;32;20205;-53
2021/09/20 03:44:41;;;;;;;14.87;7.93;;;;;;;;;;4417816;32;20285;-52
2021/09/20 03:47:07;;;;;;;13.88;7.45;;;;;;;;;;4430563;32;20593;-52
2021/09/20 03:49:33;;;;;;;11.98;6.32;;;;;;;;;;4423746;32;20318;-53
2021/09/20 03:51:58;;;;;;;9.38;5.82;;;;;;;;;;4403889;32;20856;-53
2021/09/20 03:54:23;;;;;;;14.25;7.20;;;;;;;;;;4417793;32;20241;-57
2021/09/20 03:56:49;;;;;;;12.93;5.30;;;;;;;;;;4417764;32;20231;-53
2021/09/20 03:59:14;;;;;;;13.27;6.75;;;;;;;;;;4417206;32;20217;-52
2021/09/20 04:01:40;;;;;;;9.50;5.87;;;;;;;;;;4422924;32;20241;-53
2021/09/20 04:04:05;;;;;;;15.27;5.68;;;;;;;;;;4432933;32;20298;-52
2021/09/20 04:06:31;;;;;;;10.55;5.80;;;;;;;;;;4433101;32;20228;-52
2021/09/20 04:09:00;;;;;;;13.48;6.87;;;;;;;;;;4430342;32;20357;-53
2021/09/20 04:11:26;;;;;;;21.37;6.97;;;;;;;;;;4417997;32;20329;-53
2021/09/20 04:13:51;;;;;;;12.75;7.87;;;;;;;;;;4416547;32;20331;-52
2021/09/20 04:16:17;;;;;;;15.65;9.10;;;;;;;;;;4416556;32;20248;-52
2021/09/20 04:18:43;;;;;;;13.07;6.37;;;;;;;;;;4416426;32;20292;-54
2021/09/20 04:21:09;;;;;;;12.68;7.22;;;;;;;;;;4417520;32;20264;-52
2021/09/20 04:23:34;;;;;;;18.58;6.97;;;;;;;;;;4418562;32;20651;-52
2021/09/20 04:26:00;;;;;;;11.02;6.72;;;;;;;;;;4418878;32;20528;-53
2021/09/20 04:28:25;;;;;;;11.60;7.12;;;;;;;;;;4426882;32;20353;-53
2021/09/20 04:30:50;;;;;;;12.60;6.55;;;;;;;;;;4434295;32;20237;-53
2021/09/20 04:33:19;;;;;;;10.00;6.62;;;;;;;;;;4424706;32;20291;-53
2021/09/20 04:35:45;;;;;;;15.27;7.62;;;;;;;;;;4417786;32;20273;-53
2021/09/20 04:38:11;;;;;;;11.68;7.07;;;;;;;;;;4419582;32;20288;-53
2021/09/20 04:40:37;;;;;;;10.23;5.68;;;;;;;;;;4427468;32;20217;-52
2021/09/20 04:43:07;;;;;;;10.25;6.35;;;;;;;;;;4418018;32;20276;-53
2021/09/20 04:45:34;;;;;;;8.75;6.03;;;;;;;;;;4417989;32;20244;-52
2021/09/20 04:47:59;;;;;;;8.13;6.35;;;;;;;;;;4431979;32;20233;-52
2021/09/20 04:50:25;;;;;;;9.50;6.68;;;;;;;;;;4417791;32;20239;-52
2021/09/20 04:52:51;;;;;;;10.95;6.82;;;;;;;;;;4416852;32;20341;-54
2021/09/20 04:55:16;;;;;;;10.25;7.05;;;;;;;;;;4416445;32;20289;-52
2021/09/20 04:57:42;;;;;;;14.70;8.60;;;;;;;;;;4417043;32;20790;-53
2021/09/20 05:00:09;;;;;;;12.82;8.68;;;;;;;;;;4416442;32;20602;-51
2021/09/20 05:02:34;;;;;;;13.82;7.47;;;;;;;;;;4427519;32;20220;-50
2021/09/20 05:05:00;;;;;;;15.68;7.18;;;;;;;;;;4431705;32;20307;-51
2021/09/20 05:07:25;;;;;;;11.82;7.28;;;;;;;;;;4432259;32;20355;-51
2021/09/20 05:09:51;;;;;;;10.57;7.10;;;;;;;;;;4423136;32;20267;-52
2021/09/20 05:12:18;;;;;;;8.55;6.45;;;;;;;;;;4416916;32;20545;-52
2021/09/20 05:14:44;;;;;;;11.30;6.40;;;;;;;;;;4416258;32;20304;-51
2021/09/20 05:17:10;;;;;;;13.98;8.25;;;;;;;;;;4402956;32;20249;-52
2021/09/20 05:19:35;;;;;;;14.38;7.53;;;;;;;;;;4416634;32;20302;-52
2021/09/20 05:22:01;;;;;;;17.98;8.05;;;;;;;;;;4415756;32;20537;-52
2021/09/20 05:24:26;;;;;;;15.20;6.45;;;;;;;;;;4421562;32;20585;-52
2021/09/20 05:26:52;;;;;;;9.32;6.65;;;;;;;;;;4416350;32;20288;-52
2021/09/20 05:29:17;;;;;;;15.23;7.07;;;;;;;;;;4430225;32;20641;-52
2021/09/20 05:31:43;;;;;;;17.17;6.93;;;;;;;;;;4431066;32;20270;-52
2021/09/20 05:34:08;;;;;;;10.07;6.22;;;;;;;;;;4417030;32;20377;-52
2021/09/20 05:36:33;;;;;;;25.05;9.38;;;;;;;;;;4402404;32;20224;-53
2021/09/20 05:38:59;;;;;;;10.35;6.60;;;;;;;;;;4422011;32;20283;-53
2021/09/20 05:41:24;;;;;;;17.35;8.25;;;;;;;;;;4417915;32;20320;-54
2021/09/20 05:43:50;;;;;;;18.20;8.23;;;;;;;;;;4413189;32;20394;-53
2021/09/20 05:46:15;;;;;;;21.20;9.55;;;;;;;;;;4417840;32;20549;-53
2021/09/20 05:48:41;;;;;;;17.50;7.50;;;;;;;;;;4412607;32;20319;-53
2021/09/20 05:51:06;;;;;;;13.57;6.78;;;;;;;;;;4416957;32;21123;-53
2021/09/20 05:53:32;;;;;;;10.57;6.45;;;;;;;;;;4425995;32;20833;-52
2021/09/20 05:55:57;;;;;;;9.50;5.95;;;;;;;;;;4430253;32;20772;-51
2021/09/20 05:58:23;;;;;;;13.32;6.62;;;;;;;;;;4429418;32;20306;-53
2021/09/20 06:00:49;;;;;;;18.92;7.10;;;;;;;;;;4414288;32;20648;-52
2021/09/20 06:03:14;;;;;;;15.45;7.28;;;;;;;;;;4427891;32;20295;-52
2021/09/20 06:05:41;;;;;;;12.75;6.72;;;;;;;;;;4420109;32;20248;-53
2021/09/20 06:08:07;;;;;;;14.63;6.00;;;;;;;;;;4417163;32;20253;-53
2021/09/20 06:10:33;;;;;;;12.10;5.12;;;;;;;;;;4427733;32;20350;-52
2021/09/20 06:12:59;;;;;;;13.38;6.28;;;;;;;;;;4420005;32;20322;-54
2021/09/20 06:15:25;;;;;;;10.90;6.55;;;;;;;;;;4433806;32;20233;-54
2021/09/20 06:17:50;;;;;;;15.80;9.25;;;;;;;;;;4433542;32;20287;-55
2021/09/20 06:20:16;;;;;;;19.50;7.53;;;;;;;;;;4433514;32;20271;-52
2021/09/20 06:22:42;;;;;;;11.48;7.50;;;;;;;;;;4426469;32;20312;-53
2021/09/20 06:25:08;;;;;;;12.63;7.05;;;;;;;;;;4424152;32;20237;-52
2021/09/20 06:27:34;;;;;;;12.70;6.97;;;;;;;;;;4417547;32;20625;-52
2021/09/20 06:30:00;;;;;;;12.15;5.47;;;;;;;;;;4433667;32;20248;-52
2021/09/20 06:32:25;;;;;;;17.98;6.40;;;;;;;;;;4432848;32;20753;-54
2021/09/20 06:34:51;;;;;;;15.90;7.53;;;;;;;;;;4433146;32;20621;-53
2021/09/20 06:37:16;;;;;;;18.73;6.37;;;;;;;;;;4433365;32;20224;-53
2021/09/20 06:39:42;;;;;;;9.93;6.47;;;;;;;;;;4421808;32;20312;-52
2021/09/20 06:42:08;;;;;;;10.38;6.03;;;;;;;;;;4433165;32;20221;-52
2021/09/20 06:44:34;;;;;;;10.63;7.75;;;;;;;;;;4432759;32;20284;-52
2021/09/20 06:47:00;;;;;;;9.15;6.80;;;;;;;;;;4425230;32;20280;-52
2021/09/20 06:49:25;;;;;;;14.70;7.18;;;;;;;;;;4410187;32;20233;-52
2021/09/20 06:51:51;;;;;;;10.82;8.07;;;;;;;;;;4424272;32;20204;-52
2021/09/20 06:54:21;;;;;;;19.25;7.22;;;;;;;;;;4431293;32;20229;-52
2021/09/20 06:56:47;;;;;;;15.60;8.25;;;;;;;;;;4432746;32;20213;-53
2021/09/20 06:59:13;;;;;;;9.27;6.90;;;;;;;;;;4433268;32;20247;-53
2021/09/20 07:01:38;;;;;;;12.95;6.95;;;;;;;;;;4432156;32;20299;-53
2021/09/20 07:04:04;;;;;;;14.43;7.07;;;;;;;;;;4431761;32;20302;-53
2021/09/20 07:06:29;;;;;;;12.40;7.80;;;;;;;;;;4432502;32;20259;-53
2021/09/20 07:08:55;;;;;;;10.23;6.72;;;;;;;;;;4430220;32;20354;-53
2021/09/20 07:11:20;;;;;;;10.57;7.15;;;;;;;;;;4415569;32;20244;-54
2021/09/20 07:13:46;;;;;;;8.90;5.87;;;;;;;;;;4432566;32;20617;-53
2021/09/20 07:16:11;;;;;;;7.07;5.22;;;;;;;;;;4432260;32;20375;-53
2021/09/20 07:18:37;;;;;;;8.90;6.07;;;;;;;;;;4431636;32;20379;-54
2021/09/20 07:21:03;;;;;;;11.65;5.97;;;;;;;;;;4431789;32;20304;-52
2021/09/20 07:23:29;;;;;;;14.63;7.28;;;;;;;;;;4432393;32;20405;-53
2021/09/20 07:25:55;;;;;;;10.55;7.10;;;;;;;;;;4430900;32;20248;-52
2021/09/20 07:28:20;;;;;;;13.23;7.97;;;;;;;;;;4431400;32;20331;-53
2021/09/20 07:30:46;;;;;;;13.32;6.50;;;;;;;;;;4431140;32;20315;-53
2021/09/20 07:33:11;;;;;;;12.95;8.32;;;;;;;;;;4423860;32;20349;-53
2021/09/20 07:35:37;;;;;;;10.35;7.18;;;;;;;;;;4419540;32;20256;-53
2021/09/20 07:38:03;;;;;;;16.55;8.02;;;;;;;;;;4416255;32;20344;-53
2021/09/20 07:40:29;;;;;;;16.33;8.23;;;;;;;;;;4429245;32;20403;-53
2021/09/20 07:42:57;;;;;;;13.15;6.97;;;;;;;;;;4431735;32;20302;-52
2021/09/20 07:45:23;;;;;;;9.48;6.07;;;;;;;;;;4431116;32;20311;-53
2021/09/20 07:47:49;;;;;;;11.48;7.32;;;;;;;;;;4431219;32;20344;-54
2021/09/20 07:50:16;;;;;;;16.45;7.40;;;;;;;;;;4416821;32;20703;-53
2021/09/20 07:52:42;;;;;;;9.70;5.12;;;;;;;;;;4416955;32;20228;-54
2021/09/20 07:55:08;;;;;;;7.80;5.53;;;;;;;;;;4430690;32;20321;-53
2021/09/20 07:57:34;;;;;;;11.80;7.80;;;;;;;;;;4430429;32;20419;-53
2021/09/20 08:00:00;;;;;;;10.95;6.65;;;;;;;;;;4417871;32;20213;-53
2021/09/20 08:02:25;;;;;;;16.12;6.20;;;;;;;;;;4423520;32;20298;-53
2021/09/20 08:04:51;;;;;;;14.35;9.57;;;;;;;;;;4416593;32;20309;-52
2021/09/20 08:07:17;;;;;;;21.92;13.02;;;;;;;;;;4418000;32;20205;-52
2021/09/20 08:09:42;;;;;;;57.47;38.72;;;;;;;;;;4421334;32;20311;-52
2021/09/20 08:12:08;;;;;;;33.92;26.27;;;;;;;;;;4429295;32;20376;-52
2021/09/20 08:14:34;;;;;;;25.52;17.58;;;;;;;;;;4431091;32;20263;-52
2021/09/20 08:16:59;;;;;;;23.67;14.18;;;;;;;;;;4430316;32;20289;-54
2021/09/20 08:19:25;;;;;;;22.08;13.75;;;;;;;;;;4421645;32;20225;-52
2021/09/20 08:21:50;;;;;;;18.92;12.73;;;;;;;;;;4422243;32;20303;-52
2021/09/20 08:24:16;;;;;;;18.98;11.82;;;;;;;;;;4429882;32;20228;-52
2021/09/20 08:26:42;;;;;;;15.77;10.35;;;;;;;;;;4424672;32;20213;-53
2021/09/20 08:29:08;;;;;;;19.02;10.65;;;;;;;;;;4425141;32;20837;-52
2021/09/20 08:31:34;;;;;;;13.98;8.80;;;;;;;;;;4426407;32;20248;-53
2021/09/20 08:33:59;;;;;;;16.73;10.15;;;;;;;;;;4405399;32;20776;-52
2021/09/20 08:36:25;;;;;;;12.77;7.28;;;;;;;;;;4427529;32;20270;-52
2021/09/20 08:38:51;;;;;;;15.25;9.57;;;;;;;;;;4429836;32;20362;-53
2021/09/20 08:41:17;;;;;;;12.13;9.23;;;;;;;;;;4430756;32;20243;-54
2021/09/20 08:43:42;;;;;;;16.73;9.82;;;;;;;;;;4418931;32;20338;-53
2021/09/20 08:46:08;;;;;;;14.18;7.95;;;;;;;;;;4427502;32;20257;-53
2021/09/20 08:49:00;;;;;;;17.12;7.85;;;;;;;;;;4421215;32;20299;-54
2021/09/20 08:51:26;;;;;;;13.48;8.30;;;;;;;;;;4424067;32;20263;-53
2021/09/20 08:53:51;;;;;;;15.95;7.85;;;;;;;;;;4415140;32;20536;-53
2021/09/20 08:56:18;;;;;;;12.80;6.78;;;;;;;;;;4418459;32;20488;-53
2021/09/20 08:58:43;;;;;;;12.43;7.95;;;;;;;;;;4422821;32;20314;-54
2021/09/20 09:01:09;;;;;;;12.05;8.30;;;;;;;;;;4426934;32;20629;-53
2021/09/20 09:03:34;;;;;;;14.30;8.82;;;;;;;;;;4419525;32;20376;-53
2021/09/20 09:06:00;;;;;;;16.73;9.15;;;;;;;;;;4428259;32;20220;-53
2021/09/20 09:08:38;;;;;;;13.00;8.50;;;;;;;;;;4420950;32;20323;-54
2021/09/20 09:11:06;;;;;;;15.15;7.80;;;;;;;;;;4420971;32;20271;-53
2021/09/20 09:13:40;;;;;;;12.05;8.88;;;;;;;;;;4426308;32;20285;-54
2021/09/20 09:16:16;;;;;;;11.27;7.95;;;;;;;;;;4425573;32;20271;-53
2021/09/20 09:18:58;;;;;;;14.20;8.32;;;;;;;;;;4422312;32;20329;-54
2021/09/20 09:21:29;;;;;;;11.95;8.73;;;;;;;;;;4425975;32;20285;-53
2021/09/20 09:24:08;;;;;;;18.30;9.50;;;;;;;;;;4428766;32;20557;-53
2021/09/20 09:26:35;;;;;;;18.90;9.98;;;;;;;;;;4422386;32;20310;-53
2021/09/20 09:29:12;;;;;;;15.02;9.68;;;;;;;;;;4424449;32;20245;-53
2021/09/20 09:31:39;;;;;;;20.77;10.57;;;;;;;;;;4430554;32;20272;-52
2021/09/20 09:34:20;;;;;;;19.27;10.45;;;;;;;;;;4413313;32;20297;-55
2021/09/20 09:36:46;;;;;;;13.77;9.52;;;;;;;;;;4416909;32;20201;-53
2021/09/20 09:39:12;;;;;;;34.90;11.93;;;;;;;;;;4413275;32;20313;-53
2021/09/20 09:41:43;;;;;;;23.38;11.20;;;;;;;;;;4424339;32;20272;-53
2021/09/20 09:44:12;;;;;;;14.10;9.55;;;;;;;;;;4419731;32;20368;-54
2021/09/20 09:46:40;;;;;;;19.00;10.45;;;;;;;;;;4419833;32;20229;-52
2021/09/20 09:49:17;;;;;;;15.73;10.05;;;;;;;;;;4422704;32;20292;-52
2021/09/20 09:52:09;;;;;;;9.65;7.80;;;;;;;;;;4432885;32;20322;-52
2021/09/20 09:54:36;;;;;;;14.10;8.90;;;;;;;;;;4424791;32;20272;-53
2021/09/20 09:57:19;;;;;;;14.07;8.52;;;;;;;;;;4424476;32;20597;-53
2021/09/20 09:59:56;;;;;;;35.55;21.83;;;;;;;;;;4423878;32;21945;-52
2021/09/20 10:02:33;;;;;;;20.52;8.27;;;;;;;;;;4421302;32;20779;-52
2021/09/20 10:05:11;;;;;;;16.42;6.53;;;;;;;;;;4427322;32;20217;-53
2021/09/20 10:07:39;;;;;;;6.47;5.45;;;;;;;;;;4426926;32;20329;-53
2021/09/20 10:10:08;;;;;;;8.18;4.87;;;;;;;;;;4427023;32;20301;-52
2021/09/20 10:12:34;;;;;;;11.32;6.10;;;;;;;;;;4428115;32;20253;-52
2021/09/20 10:15:02;;;;;;;8.95;5.75;;;;;;;;;;4412850;32;20368;-52
2021/09/20 10:17:29;;;;;;;17.42;6.78;;;;;;;;;;4424989;32;20630;-53
2021/09/20 10:19:56;;;;;;;11.45;7.00;;;;;;;;;;4424059;32;20338;-54
2021/09/20 10:22:22;;;;;;;13.45;6.53;;;;;;;;;;4425410;32;20321;-53
2021/09/20 10:24:50;;;;;;;10.98;5.57;;;;;;;;;;4427122;32;20323;-53
2021/09/20 10:27:18;;;;;;;13.73;6.53;;;;;;;;;;4423689;32;20333;-53
2021/09/20 10:29:58;;;;;;;17.05;6.90;;;;;;;;;;4421397;32;20228;-53
2021/09/20 10:32:27;;;;;;;15.63;7.53;;;;;;;;;;4425144;32;20738;-53
2021/09/20 10:35:24;;;;;;;14.68;6.93;;;;;;;;;;4425517;32;20401;-53
2021/09/20 10:37:56;;;;;;;13.35;7.12;;;;;;;;;;4425294;32;20299;-55
2021/09/20 10:40:21;;;;;;;12.75;6.00;;;;;;;;;;4421746;32;20324;-54
2021/09/20 10:43:23;;;;;;;11.07;6.60;;;;;;;;;;4426922;32;20308;-53
2021/09/20 10:45:52;;;;;;;13.25;6.85;;;;;;;;;;4427743;32;20388;-53
2021/09/20 10:48:21;;;;;;;19.90;9.27;;;;;;;;;;4419384;32;20241;-53
2021/09/20 10:51:11;;;;;;;18.98;8.68;;;;;;;;;;4428870;32;20282;-53
2021/09/20 10:53:37;;;;;;;22.27;7.80;;;;;;;;;;4423706;32;20267;-53
2021/09/20 10:56:02;;;;;;;11.02;6.97;;;;;;;;;;4426581;32;20332;-56
2021/09/20 10:58:32;;;;;;;22.58;7.97;;;;;;;;;;4427167;32;20498;-55
2021/09/20 11:01:16;;;;;;;11.15;7.30;;;;;;;;;;4425032;32;20260;-55
2021/09/20 11:03:59;;;;;;;12.55;6.60;;;;;;;;;;4415134;32;20403;-53
2021/09/20 11:06:26;;;;;;;14.38;7.53;;;;;;;;;;4424245;32;20255;-54
2021/09/20 11:08:57;;;;;;;11.85;7.22;;;;;;;;;;4425133;32;20332;-54
2021/09/20 11:11:44;;;;;;;9.85;6.15;;;;;;;;;;4421815;32;20644;-54
2021/09/20 11:14:19;;;;;;;17.35;6.32;;;;;;;;;;4425858;32;20283;-54
2021/09/20 11:17:00;;;;;;;12.23;6.68;;;;;;;;;;4426366;32;20292;-53
2021/09/20 11:22:13;;;;;;;13.35;6.43;;;;;;;;;;4423988;32;20268;-54
2021/09/20 11:24:46;;;;;;;14.02;6.05;;;;;;;;;;4423638;32;20354;-53
2021/09/20 11:27:32;;;;;;;17.90;6.22;;;;;;;;;;4410667;32;20259;-53
2021/09/20 11:30:14;;;;;;;11.00;5.72;;;;;;;;;;4424467;32;20799;-53
2021/09/20 11:32:48;;;;;;;11.45;6.07;;;;;;;;;;4421034;32;20235;-54
2021/09/20 11:35:16;;;;;;;16.30;5.32;;;;;;;;;;4420642;32;20294;-54
2021/09/20 11:37:42;;;;;;;8.70;5.40;;;;;;;;;;4426785;32;20209;-54
2021/09/20 11:40:11;;;;;;;15.35;6.03;;;;;;;;;;4425408;32;20240;-55
2021/09/20 11:42:36;;;;;;;13.82;5.40;;;;;;;;;;4416188;32;20225;-54
2021/09/20 11:45:21;;;;;;;14.52;4.97;;;;;;;;;;4429650;32;20387;-54
2021/09/20 11:47:51;;;;;;;9.55;4.95;;;;;;;;;;4424980;32;20296;-54
2021/09/20 11:50:23;;;;;;;11.57;5.60;;;;;;;;;;4423824;32;20331;-54
2021/09/20 11:52:51;;;;;;;9.43;4.68;;;;;;;;;;4424188;32;20244;-54
2021/09/20 11:55:30;;;;;;;8.13;4.53;;;;;;;;;;4428842;32;20245;-55
2021/09/20 11:57:59;;;;;;;17.50;5.53;;;;;;;;;;4427511;32;20235;-52
2021/09/20 12:00:27;;;;;;;15.60;4.25;;;;;;;;;;4425918;32;20304;-53
2021/09/20 12:02:54;;;;;;;8.80;5.03;;;;;;;;;;4421689;32;20319;-54
2021/09/20 12:05:25;;;;;;;8.50;4.43;;;;;;;;;;4426911;32;20680;-53
2021/09/20 12:07:53;;;;;;;15.10;5.25;;;;;;;;;;4427779;32;20728;-53
2021/09/20 12:10:31;;;;;;;9.70;4.65;;;;;;;;;;4424418;32;20466;-55
2021/09/20 12:13:00;;;;;;;11.77;3.50;;;;;;;;;;4422427;32;20246;-53
2021/09/20 12:15:33;;;;;;;11.52;5.30;;;;;;;;;;4419459;32;20771;-53
2021/09/20 12:18:02;;;;;;;8.65;3.65;;;;;;;;;;4429499;32;20241;-54
2021/09/20 12:20:38;;;;;;;12.90;2.62;;;;;;;;;;4422280;32;20232;-54
2021/09/20 12:23:32;;;;;;;4.15;2.45;;;;;;;;;;4423153;32;20270;-53
2021/09/20 12:26:00;;;;;;;4.22;2.12;;;;;;;;;;4430881;32;20329;-53
2021/09/20 12:28:32;;;;;;;8.65;2.08;;;;;;;;;;4428153;32;20239;-54
2021/09/20 12:31:13;;;;;;;20.05;2.80;;;;;;;;;;4425018;32;20229;-54
2021/09/20 12:33:49;;;;;;;9.20;2.78;;;;;;;;;;4430032;32;20263;-54
2021/09/20 12:36:24;;;;;;;6.20;2.85;;;;;;;;;;4416856;32;20213;-53
2021/09/20 12:39:22;;;;;;;10.55;2.15;;;;;;;;;;4425189;32;20688;-54
2021/09/20 12:41:59;;;;;;;5.95;1.95;;;;;;;;;;4418438;32;20787;-54
2021/09/20 12:44:34;;;;;;;9.32;2.30;;;;;;;;;;4417174;32;20386;-54
2021/09/20 12:47:15;;;;;;;6.12;2.17;;;;;;;;;;4424756;32;20212;-54
2021/09/20 12:49:42;;;;;;;6.65;2.30;;;;;;;;;;4429727;32;20569;-53
2021/09/20 12:52:43;;;;;;;3.97;2.17;;;;;;;;;;4418319;32;20283;-54
2021/09/20 12:55:10;;;;;;;2.95;2.37;;;;;;;;;;4394936;32;20266;-54
2021/09/20 12:57:36;;;;;;;8.38;2.08;;;;;;;;;;4423229;32;20236;-53
2021/09/20 13:00:12;;;;;;;7.57;2.47;;;;;;;;;;4418933;32;20395;-54
2021/09/20 13:02:39;;;;;;;5.68;2.20;;;;;;;;;;4424702;32;20236;-54
2021/09/20 13:05:09;;;;;;;4.57;2.00;;;;;;;;;;4425658;32;20255;-54
2021/09/20 13:07:35;;;;;;;6.20;2.62;;;;;;;;;;4425721;32;20238;-53
2021/09/20 13:10:13;;;;;;;4.80;2.50;;;;;;;;;;4423024;32;20217;-54
2021/09/20 13:12:41;;;;;;;5.40;2.22;;;;;;;;;;4416495;32;20655;-54
2021/09/20 13:15:15;;;;;;;3.35;1.58;;;;;;;;;;4422699;32;20244;-53
2021/09/20 13:17:54;;;;;;;13.93;2.50;;;;;;;;;;4423054;32;20582;-54
2021/09/20 13:20:34;;;;;;;4.10;1.75;;;;;;;;;;4422227;32;20340;-54
2021/09/20 13:23:03;;;;;;;11.05;2.65;;;;;;;;;;4413893;32;20638;-53
2021/09/20 13:25:46;;;;;;;5.30;2.42;;;;;;;;;;4425993;32;20301;-54
2021/09/20 13:28:14;;;;;;;13.75;2.47;;;;;;;;;;4419232;32;20308;-53
2021/09/20 13:30:48;;;;;;;5.47;1.73;;;;;;;;;;4420395;32;20297;-55
2021/09/20 13:33:14;;;;;;;6.87;1.73;;;;;;;;;;4429662;32;20229;-54
2021/09/20 13:35:51;;;;;;;7.32;2.00;;;;;;;;;;4417964;32;20310;-54
2021/09/20 13:38:19;;;;;;;5.18;2.20;;;;;;;;;;4406849;32;20725;-54
2021/09/20 13:40:46;;;;;;;4.30;2.03;;;;;;;;;;4428824;32;20257;-54
2021/09/20 13:43:13;;;;;;;5.62;2.12;;;;;;;;;;4419707;32;20650;-55
2021/09/20 13:45:39;;;;;;;4.53;2.17;;;;;;;;;;4414913;32;20312;-55
2021/09/20 13:48:08;;;;;;;6.90;2.65;;;;;;;;;;4424351;32;20612;-55
2021/09/20 13:50:34;;;;;;;5.35;2.08;;;;;;;;;;4420013;32;20294;-55
2021/09/20 13:52:59;;;;;;;4.78;1.83;;;;;;;;;;4417335;32;20668;-55
2021/09/20 13:55:26;;;;;;;8.50;2.12;;;;;;;;;;4429065;32;20284;-55
2021/09/20 13:57:51;;;;;;;4.90;1.77;;;;;;;;;;4418150;32;20286;-55
2021/09/20 14:00:18;;;;;;;4.20;2.03;;;;;;;;;;4420971;32;20678;-55
2021/09/20 14:02:44;;;;;;;5.07;2.75;;;;;;;;;;4419469;32;20630;-55
2021/09/20 14:05:11;;;;;;;10.50;2.00;;;;;;;;;;4425395;32;20245;-54
2021/09/20 14:07:37;;;;;;;11.80;2.35;;;;;;;;;;4420107;32;20256;-55
2021/09/20 14:10:09;;;;;;;8.40;2.58;;;;;;;;;;4417898;32;20379;-55
2021/09/20 14:12:35;;;;;;;3.85;1.67;;;;;;;;;;4418968;32;20280;-55
2021/09/20 14:15:00;;;;;;;3.62;2.80;;;;;;;;;;4427785;32;20263;-55
2021/09/20 14:17:26;;;;;;;2.05;1.60;;;;;;;;;;4420716;32;20332;-55
2021/09/20 14:19:53;;;;;;;6.78;1.70;;;;;;;;;;4410119;32;20663;-54
2021/09/20 14:22:21;;;;;;;6.15;1.80;;;;;;;;;;4420722;32;20213;-53
2021/09/20 14:24:47;;;;;;;5.12;1.85;;;;;;;;;;4425040;32;20288;-54
2021/09/20 14:27:13;;;;;;;4.07;1.70;;;;;;;;;;4420368;32;20281;-56
2021/09/20 14:29:39;;;;;;;8.77;2.33;;;;;;;;;;4420851;32;20275;-55
2021/09/20 14:32:04;;;;;;;5.35;1.37;;;;;;;;;;4429870;32;20538;-56
2021/09/20 14:34:30;;;;;;;4.47;1.37;;;;;;;;;;4425175;32;20232;-54
2021/09/20 14:36:56;;;;;;;3.30;2.10;;;;;;;;;;4428720;32;20244;-54
2021/09/20 14:39:22;;;;;;;1.98;1.30;;;;;;;;;;4428444;32;20232;-54
2021/09/20 14:41:48;;;;;;;3.90;1.37;;;;;;;;;;4427873;32;20275;-54